KCHA METAR and TAF | Updated Today

KCHA METAR

Lovell Field

Observation time: 11 min. ago

KCHA 301753Z 00000KT 10SM FEW250 16/00 A3014 RMK AO2 SLP206 T01560000 10156 21011 58015

Need help? Read our tutorial on how to read METARs or read the parsed version below.

Lovell Field (KCHA) METAR

  • Weather conditions on Tue, 30 Nov 2021 17:53:00 +0000 (11 min. ago):
  • Present conditions: Dry
  • Clouds: A few at 7620 meters
  • Visibility: 16093 meters
  • Wind: Calm
  • Temperature: 16 celsius
  • Dew point: 0 celsius
  • Pressure: 30.14 inHg
  • Remarks: AO2 SLP206 T01560000 10156 21011 58015


Useful to know...

KCHA TAF

Lovell Field

KCHA 301733Z 3018/0118 21005KT P6SM SKC FM010300 00000KT P6SM FEW250 FM011600 19004KT P6SM SCT250
Observation time: 31 min. ago
Need help? Read our tutorial on how to read TAFs or read the parsed version below.

Parsed version of TAF for Lovell Field (KCHA)

  • From 30 November at 18:00 UTC, to day 01 of the month at 18:00 UTC
  • Clouds: No significant changes expected
  • Wind: 210 degrees at 5
  • From day 1 of the month at 03:00 UTC
  • Clouds: A few at 7620 meters
  • From day 1 of the month at 16:00 UTC
  • Clouds: Scattered at 7620 meters
  • Wind: 190 degrees at 4

Airports near KCHA

KDNN Weather
Region: Dalton

Dalton Municipal Airport

Not found in our database
KMMI Weather
Region: Athens

McMinn County Airport

Not found in our database
KRMG Weather
IATA: RMG
Region: Rome

Richard B Russell Airport

Found in our database